Time;durP1;ratioP1;P1;durP2;ratioP2;P2;SDS_P1;SDS_P2;PMS_P1;PMS_P2;Temp;Humidity;BMP_temperature;BMP_pressure;BME280_temperature;BME280_humidity;BME280_pressure;Samples;Min_cycle;Max_cycle;Signal;HPM_P1;HPM_P2
2022/04/16 00:01:11;;;;;;;28.90;25.80;;;9.10;99.90;;;;;;5036159;28;20511;-78
2022/04/16 00:03:43;;;;;;;32.77;25.77;;;9.10;99.90;;;;;;5036082;28;20454;-78
2022/04/16 00:06:11;;;;;;;27.43;24.53;;;9.10;99.90;;;;;;5036331;28;20471;-78
2022/04/16 00:08:41;;;;;;;27.27;24.37;;;9.10;99.90;;;;;;5035419;28;20457;-77
2022/04/16 00:11:09;;;;;;;26.43;23.50;;;9.10;99.90;;;;;;5033606;28;20513;-77
2022/04/16 00:13:37;;;;;;;25.40;22.70;;;9.10;99.90;;;;;;5034342;28;20443;-77
2022/04/16 00:16:06;;;;;;;31.23;24.93;;;9.10;99.90;;;;;;5034441;28;20443;-78
2022/04/16 00:18:35;;;;;;;27.30;23.10;;;9.00;99.90;;;;;;5035687;28;20443;-77
2022/04/16 00:21:04;;;;;;;27.10;24.20;;;9.00;99.90;;;;;;5036066;28;20478;-78
2022/04/16 00:23:32;;;;;;;27.27;23.87;;;9.00;99.90;;;;;;5034125;28;20474;-77
2022/04/16 00:26:02;;;;;;;26.50;23.60;;;9.00;99.90;;;;;;5034720;28;20478;-78
2022/04/16 00:28:31;;;;;;;29.03;23.50;;;9.10;99.90;;;;;;5035699;28;20836;-77
2022/04/16 00:30:59;;;;;;;27.23;23.17;;;9.00;99.90;;;;;;5036316;28;20815;-77
2022/04/16 00:33:27;;;;;;;28.23;24.20;;;9.00;99.90;;;;;;5037693;28;20439;-77
2022/04/16 00:35:55;;;;;;;26.63;22.77;;;9.00;99.90;;;;;;5054067;28;20460;-78
2022/04/16 00:38:24;;;;;;;28.33;23.10;;;9.00;99.90;;;;;;5054473;28;20453;-78
2022/04/16 00:40:53;;;;;;;26.60;23.70;;;9.00;99.90;;;;;;5058180;28;20828;-78
2022/04/16 00:43:24;;;;;;;25.27;22.00;;;8.90;99.90;;;;;;5056664;28;21012;-77
2022/04/16 00:45:53;;;;;;;28.13;22.10;;;8.90;99.90;;;;;;5056873;28;20469;-78
2022/04/16 00:48:22;;;;;;;28.00;22.93;;;8.90;99.90;;;;;;5052968;28;20466;-78
2022/04/16 00:50:52;;;;;;;26.00;23.20;;;8.90;99.90;;;;;;5047035;28;20560;-77
2022/04/16 00:53:20;;;;;;;31.07;22.90;;;8.90;99.90;;;;;;5054344;28;20454;-77
2022/04/16 00:55:49;;;;;;;25.00;22.33;;;8.80;99.90;;;;;;5054063;28;20446;-77
2022/04/16 00:58:17;;;;;;;27.43;21.90;;;8.80;99.90;;;;;;5054307;28;20508;-78
2022/04/16 01:00:47;;;;;;;25.17;21.50;;;8.80;99.90;;;;;;5055751;28;20528;-77
2022/04/16 01:03:16;;;;;;;26.57;21.33;;;8.80;99.90;;;;;;5043159;28;20458;-78
2022/04/16 01:05:44;;;;;;;23.57;20.70;;;8.80;99.90;;;;;;5034621;28;20546;-78
2022/04/16 01:08:12;;;;;;;24.73;21.00;;;8.80;99.90;;;;;;5035705;28;20481;-78
2022/04/16 01:10:40;;;;;;;25.03;21.30;;;8.80;99.90;;;;;;5034445;28;20447;-77
2022/04/16 01:13:08;;;;;;;23.83;20.80;;;8.80;99.90;;;;;;5033507;28;20450;-77
2022/04/16 01:15:39;;;;;;;25.83;20.67;;;8.80;99.90;;;;;;5036749;28;20860;-78
2022/04/16 01:18:10;;;;;;;26.23;21.60;;;8.70;99.90;;;;;;5035951;28;20470;-79
2022/04/16 01:20:38;;;;;;;27.60;21.93;;;8.70;99.90;;;;;;5042489;28;20461;-77
2022/04/16 01:23:08;;;;;;;25.07;21.40;;;8.70;99.90;;;;;;5052947;28;20449;-78
2022/04/16 01:25:37;;;;;;;26.30;21.07;;;8.70;99.90;;;;;;5030753;28;20977;-78
2022/04/16 01:28:06;;;;;;;24.10;19.97;;;8.70;99.90;;;;;;5034303;28;21103;-78
2022/04/16 01:30:35;;;;;;;26.27;21.07;;;8.70;99.90;;;;;;5034434;28;20450;-77
2022/04/16 01:33:03;;;;;;;25.33;21.10;;;8.60;99.90;;;;;;5036749;28;20787;-78
2022/04/16 01:35:32;;;;;;;24.67;20.33;;;8.60;99.90;;;;;;5043816;28;20453;-77
2022/04/16 01:38:04;;;;;;;24.80;20.27;;;8.60;99.90;;;;;;5056077;28;20460;-78
2022/04/16 01:40:34;;;;;;;24.23;21.07;;;8.60;99.90;;;;;;5053668;28;20541;-78
2022/04/16 01:43:02;;;;;;;25.23;21.60;;;8.60;99.90;;;;;;5053109;28;20489;-78
2022/04/16 01:45:33;;;;;;;24.57;20.37;;;8.60;99.90;;;;;;5053612;28;20465;-77
2022/04/16 01:48:02;;;;;;;25.63;20.43;;;8.60;99.90;;;;;;5052789;28;20477;-77
2022/04/16 01:50:30;;;;;;;25.23;21.30;;;8.60;99.90;;;;;;5047741;28;20508;-77
2022/04/16 01:52:59;;;;;;;22.30;19.30;;;8.50;99.90;;;;;;5039071;28;20461;-78
2022/04/16 01:55:27;;;;;;;23.63;20.37;;;8.50;99.90;;;;;;5045911;28;20449;-78
2022/04/16 01:57:58;;;;;;;24.43;21.10;;;8.50;99.90;;;;;;5033551;28;20473;-77
2022/04/16 02:00:26;;;;;;;23.13;20.63;;;8.50;99.90;;;;;;5035003;28;20423;-78
2022/04/16 02:02:54;;;;;;;24.33;18.77;;;8.50;99.90;;;;;;5034627;28;20465;-77
2022/04/16 02:05:23;;;;;;;20.30;16.10;;;8.50;99.90;;;;;;5037450;28;20520;-78
2022/04/16 02:07:51;;;;;;;21.30;17.50;;;8.50;99.90;;;;;;5053755;28;20513;-78
2022/04/16 02:10:19;;;;;;;19.10;14.73;;;8.40;99.90;;;;;;5053106;28;20571;-78
2022/04/16 02:12:48;;;;;;;18.83;14.73;;;8.40;99.90;;;;;;5054116;28;20437;-78
2022/04/16 02:15:18;;;;;;;20.20;14.90;;;8.40;99.90;;;;;;5053516;28;20944;-77
2022/04/16 02:17:47;;;;;;;20.30;14.53;;;8.40;99.90;;;;;;5052393;28;20462;-77
2022/04/16 02:20:15;;;;;;;17.80;13.43;;;8.40;99.90;;;;;;5048147;28;20537;-78
2022/04/16 02:22:44;;;;;;;18.60;13.63;;;8.30;99.90;;;;;;5034342;28;20442;-78
2022/04/16 02:25:14;;;;;;;16.90;13.40;;;8.30;99.90;;;;;;5039695;28;20466;-77
2022/04/16 02:27:42;;;;;;;17.23;13.33;;;8.30;99.90;;;;;;5032389;28;20525;-77
2022/04/16 02:30:13;;;;;;;17.23;12.50;;;8.20;99.90;;;;;;5033625;28;20468;-77
2022/04/16 02:32:44;;;;;;;15.97;12.00;;;8.20;99.90;;;;;;5032382;28;20539;-77
2022/04/16 02:35:14;;;;;;;14.90;11.17;;;8.10;99.90;;;;;;5043578;28;20438;-77
2022/04/16 02:37:43;;;;;;;15.33;11.77;;;8.10;99.90;;;;;;5055981;28;20492;-77
2022/04/16 02:40:12;;;;;;;14.43;10.47;;;8.00;99.90;;;;;;5049572;28;21013;-77
2022/04/16 02:42:42;;;;;;;15.33;10.70;;;8.00;99.90;;;;;;5033558;28;21014;-79
2022/04/16 02:47:59;;;;;;;14.33;10.50;;;7.90;99.90;;;;;;5017784;28;20529;-77
2022/04/16 02:50:28;;;;;;;13.20;10.63;;;7.80;99.90;;;;;;5017313;28;20498;-77
2022/04/16 02:52:58;;;;;;;15.03;11.80;;;7.80;99.90;;;;;;5017657;28;20471;-78
2022/04/16 02:55:27;;;;;;;14.10;10.83;;;7.80;99.90;;;;;;5019493;28;20439;-78
2022/04/16 02:57:55;;;;;;;14.50;10.43;;;7.70;99.90;;;;;;5032372;28;20475;-77
2022/04/16 03:00:25;;;;;;;17.37;11.37;;;7.70;99.90;;;;;;5017235;28;20497;-77
2022/04/16 03:02:54;;;;;;;15.70;11.17;;;7.60;99.90;;;;;;5032369;28;20458;-77
2022/04/16 03:05:24;;;;;;;13.10;9.90;;;7.60;99.90;;;;;;5033349;28;20549;-77
2022/04/16 03:07:52;;;;;;;13.60;9.03;;;7.60;99.90;;;;;;5035420;28;20478;-77
2022/04/16 03:10:20;;;;;;;13.80;9.27;;;7.50;99.90;;;;;;5041513;28;20443;-77
2022/04/16 03:12:51;;;;;;;12.00;8.80;;;7.50;99.90;;;;;;5035711;28;20481;-77
2022/04/16 03:18:09;;;;;;;13.70;9.23;;;7.40;99.90;;;;;;5043272;28;20465;-78
2022/04/16 03:20:40;;;;;;;11.60;7.67;;;7.30;99.90;;;;;;5059227;28;20433;-78
2022/04/16 03:23:09;;;;;;;12.67;8.40;;;7.30;99.90;;;;;;5058993;28;20421;-79
2022/04/16 03:25:40;;;;;;;12.40;7.57;;;7.20;99.90;;;;;;5058674;28;20437;-78
2022/04/16 03:28:08;;;;;;;12.27;6.80;;;7.20;99.90;;;;;;5055663;28;20516;-78
2022/04/16 03:30:37;;;;;;;10.53;6.93;;;7.10;99.90;;;;;;5034751;28;20443;-77
2022/04/16 03:33:06;;;;;;;9.87;6.30;;;7.10;99.90;;;;;;5035432;28;20453;-77
2022/04/16 03:35:35;;;;;;;10.93;6.83;;;7.00;99.90;;;;;;5055297;28;20471;-77
2022/04/16 03:38:06;;;;;;;11.17;7.37;;;7.00;99.90;;;;;;5055087;28;20512;-77
2022/04/16 03:40:34;;;;;;;10.87;6.90;;;7.00;99.90;;;;;;5055966;28;20954;-78
2022/04/16 03:43:03;;;;;;;10.77;6.50;;;6.90;99.90;;;;;;5017224;28;21036;-78
2022/04/16 03:45:32;;;;;;;10.93;6.47;;;6.80;99.90;;;;;;5038166;28;20530;-78
2022/04/16 03:48:02;;;;;;;10.20;6.43;;;6.80;99.90;;;;;;5036695;28;20838;-77
2022/04/16 03:50:31;;;;;;;9.57;6.63;;;6.70;99.90;;;;;;5035597;28;20519;-77
2022/04/16 03:53:00;;;;;;;10.17;7.07;;;6.70;99.90;;;;;;5035240;28;20454;-77
2022/04/16 04:01:05;;;;;;;9.87;6.90;;;6.60;99.90;;;;;;5036257;28;20414;-77
2022/04/16 04:03:34;;;;;;;13.27;7.53;;;6.50;99.90;;;;;;5036339;28;20829;-77
2022/04/16 04:06:02;;;;;;;9.70;6.60;;;6.50;99.90;;;;;;5035789;28;20499;-77
2022/04/16 04:08:31;;;;;;;11.43;7.03;;;6.40;99.90;;;;;;5034830;28;20467;-77
2022/04/16 04:11:00;;;;;;;9.97;6.53;;;6.40;99.90;;;;;;5052238;28;20498;-77
2022/04/16 04:13:28;;;;;;;11.10;5.83;;;6.40;99.90;;;;;;5055380;28;20482;-77
2022/04/16 04:15:57;;;;;;;10.27;5.93;;;6.30;99.90;;;;;;5055697;28;20453;-78
2022/04/16 04:18:26;;;;;;;11.60;5.30;;;6.30;99.90;;;;;;5047772;28;20971;-79
2022/04/16 04:20:56;;;;;;;9.00;5.63;;;6.20;99.90;;;;;;5038852;28;20445;-78
2022/04/16 04:23:24;;;;;;;8.00;4.70;;;6.20;99.90;;;;;;5037610;28;20515;-78
2022/04/16 04:25:53;;;;;;;9.60;5.37;;;6.10;99.90;;;;;;5036523;28;20824;-79
2022/04/16 04:28:23;;;;;;;7.87;5.30;;;6.10;99.90;;;;;;5035604;28;20468;-77
2022/04/16 04:30:51;;;;;;;7.87;3.90;;;6.00;99.90;;;;;;5047796;28;21030;-77
2022/04/16 04:33:19;;;;;;;7.20;4.17;;;6.00;99.90;;;;;;5043464;28;20459;-78
2022/04/16 04:35:50;;;;;;;6.90;4.63;;;5.90;99.90;;;;;;5053214;28;20512;-77
2022/04/16 04:38:18;;;;;;;7.37;3.77;;;5.90;99.90;;;;;;5054108;28;20913;-77
2022/04/16 04:40:46;;;;;;;7.33;3.53;;;5.80;99.90;;;;;;5053663;28;20469;-77
2022/04/16 04:43:15;;;;;;;6.83;4.30;;;5.80;99.90;;;;;;5054351;28;20464;-78
2022/04/16 04:45:46;;;;;;;7.63;3.67;;;5.80;99.90;;;;;;5042970;28;20462;-78
2022/04/16 04:48:15;;;;;;;6.07;2.97;;;5.70;99.90;;;;;;5034161;28;20885;-77
2022/04/16 04:50:43;;;;;;;6.83;3.27;;;5.70;99.90;;;;;;5047290;28;20454;-77
2022/04/16 04:53:11;;;;;;;7.33;4.03;;;5.70;99.90;;;;;;5055398;28;20445;-78
2022/04/16 04:55:39;;;;;;;7.27;3.30;;;5.60;99.90;;;;;;5050780;28;20536;-78
2022/04/16 04:58:08;;;;;;;7.20;3.03;;;5.60;99.90;;;;;;5034818;28;20948;-77
2022/04/16 05:00:36;;;;;;;7.40;3.07;;;5.60;99.90;;;;;;5038509;28;21044;-77
2022/04/16 05:03:06;;;;;;;6.73;3.07;;;5.60;99.90;;;;;;5051995;28;20461;-77
2022/04/16 05:05:34;;;;;;;6.70;2.43;;;5.50;99.90;;;;;;5049428;28;20494;-77
2022/04/16 05:08:02;;;;;;;6.60;3.10;;;5.50;99.90;;;;;;5033356;28;20471;-77
2022/04/16 05:10:30;;;;;;;5.87;3.00;;;5.50;99.90;;;;;;5035313;28;20526;-77
2022/04/16 05:12:59;;;;;;;6.67;3.73;;;5.50;99.90;;;;;;5035206;28;20545;-77
2022/04/16 05:15:27;;;;;;;7.63;2.83;;;5.40;99.90;;;;;;5033666;28;20547;-78
2022/04/16 05:17:55;;;;;;;7.30;2.73;;;5.50;99.90;;;;;;5042051;28;20497;-77
2022/04/16 05:20:25;;;;;;;6.77;3.07;;;5.50;99.90;;;;;;5045356;28;20465;-77
2022/04/16 05:22:53;;;;;;;6.57;2.60;;;5.40;99.90;;;;;;5053290;28;20455;-77
2022/04/16 05:25:21;;;;;;;5.87;2.40;;;5.40;99.90;;;;;;5053150;28;20449;-77
2022/04/16 05:27:49;;;;;;;7.80;2.90;;;5.40;99.90;;;;;;5054112;28;20474;-77
2022/04/16 05:30:25;;;;;;;6.33;3.37;;;5.40;99.90;;;;;;5050337;28;20473;-77
2022/04/16 05:32:56;;;;;;;6.20;2.50;;;5.40;99.90;;;;;;5053554;28;20463;-78
2022/04/16 05:35:26;;;;;;;6.33;2.60;;;5.40;99.90;;;;;;5054594;28;20926;-78
2022/04/16 05:37:54;;;;;;;5.80;3.00;;;5.40;99.90;;;;;;5034011;28;20533;-78
2022/04/16 05:40:27;;;;;;;7.00;3.23;;;5.40;99.90;;;;;;5034096;28;20521;-78
2022/04/16 05:42:55;;;;;;;5.53;2.33;;;5.40;99.90;;;;;;5042606;28;20437;-78
2022/04/16 05:45:23;;;;;;;6.37;2.80;;;5.40;99.90;;;;;;5053983;28;20435;-78
2022/04/16 05:47:51;;;;;;;6.20;3.10;;;5.40;99.90;;;;;;5053898;28;20477;-78
2022/04/16 05:50:19;;;;;;;6.90;2.40;;;5.40;99.90;;;;;;5042124;28;20472;-78
2022/04/16 05:52:52;;;;;;;7.60;2.60;;;5.40;99.90;;;;;;5034655;28;20445;-78
2022/04/16 05:55:20;;;;;;;7.03;3.00;;;5.40;99.90;;;;;;5035701;28;20419;-78
2022/04/16 05:57:49;;;;;;;6.50;2.50;;;5.40;99.90;;;;;;5037098;28;20465;-78
2022/04/16 06:00:17;;;;;;;6.30;2.40;;;5.50;99.90;;;;;;5035887;28;20454;-78
2022/04/16 06:02:46;;;;;;;8.60;4.00;;;5.50;99.90;;;;;;5035183;28;20550;-79
2022/04/16 06:05:14;;;;;;;7.90;3.40;;;5.60;99.90;;;;;;5041507;28;20508;-78
2022/04/16 06:07:42;;;;;;;8.47;2.60;;;5.70;99.90;;;;;;5056098;28;20468;-79
2022/04/16 06:10:12;;;;;;;9.13;2.60;;;5.90;99.90;;;;;;5039398;28;20567;-78
2022/04/16 06:12:41;;;;;;;5.60;1.70;;;6.10;99.90;;;;;;5040144;28;20431;-79
2022/04/16 06:15:09;;;;;;;7.20;2.53;;;6.40;99.90;;;;;;5048440;28;20462;-78
2022/04/16 06:17:38;;;;;;;6.83;1.90;;;6.60;99.90;;;;;;5054484;28;20473;-78
2022/04/16 06:20:08;;;;;;;6.50;1.63;;;6.90;99.90;;;;;;5040392;28;20545;-78
2022/04/16 06:22:36;;;;;;;6.73;1.83;;;7.20;99.90;;;;;;5039529;28;20793;-78
2022/04/16 06:25:05;;;;;;;7.53;1.77;;;7.40;99.90;;;;;;5047926;28;20456;-78
2022/04/16 06:27:39;;;;;;;6.07;1.90;;;7.70;99.90;;;;;;5057711;28;20464;-78
2022/04/16 06:30:09;;;;;;;6.23;1.77;;;8.00;99.90;;;;;;5059305;28;20574;-78
2022/04/16 06:32:38;;;;;;;7.53;2.47;;;8.20;99.90;;;;;;5053714;28;20453;-78
2022/04/16 06:35:07;;;;;;;6.17;2.23;;;8.40;99.90;;;;;;5045036;28;20516;-78
2022/04/16 06:37:38;;;;;;;6.80;1.70;;;8.60;99.90;;;;;;5038011;28;20470;-78
2022/04/16 06:40:07;;;;;;;8.57;2.17;;;8.80;99.90;;;;;;5039174;28;21025;-78
2022/04/16 06:42:37;;;;;;;6.47;2.27;;;9.10;99.90;;;;;;5038203;28;20863;-78
2022/04/16 06:45:08;;;;;;;5.97;2.07;;;9.30;99.90;;;;;;5041008;28;20478;-78
2022/04/16 06:47:36;;;;;;;6.10;1.60;;;9.50;99.90;;;;;;5042655;28;20913;-78
2022/04/16 06:50:06;;;;;;;6.43;2.03;;;9.70;99.90;;;;;;5042261;28;20845;-78
2022/04/16 06:52:34;;;;;;;6.73;2.00;;;9.90;99.90;;;;;;5040748;28;20451;-78
2022/04/16 06:55:03;;;;;;;5.80;1.90;;;10.10;99.90;;;;;;5046802;28;20501;-78
2022/04/16 06:57:31;;;;;;;6.97;2.10;;;10.30;99.90;;;;;;5058039;28;20860;-78
2022/04/16 07:00:06;;;;;;;8.03;1.80;;;10.50;99.90;;;;;;5059930;28;20481;-78
2022/04/16 07:02:34;;;;;;;7.03;1.93;;;10.60;99.90;;;;;;5060677;28;20480;-78
2022/04/16 07:05:03;;;;;;;5.17;1.53;;;10.70;99.90;;;;;;5070803;28;20446;-79
2022/04/16 07:07:31;;;;;;;6.13;1.67;;;10.90;99.90;;;;;;5061592;28;20839;-77
2022/04/16 07:10:00;;;;;;;7.00;2.50;;;11.00;99.90;;;;;;5065458;28;20465;-78
2022/04/16 07:12:28;;;;;;;6.63;2.20;;;11.10;99.90;;;;;;5060936;28;20446;-78
2022/04/16 07:14:57;;;;;;;5.67;2.00;;;11.20;99.90;;;;;;5051920;28;20453;-77
2022/04/16 07:17:27;;;;;;;5.77;1.50;;;11.40;99.90;;;;;;5042429;28;20513;-78
2022/04/16 07:19:56;;;;;;;5.67;1.50;;;11.50;99.90;;;;;;5049760;28;20447;-78
2022/04/16 07:22:24;;;;;;;6.03;2.07;;;11.60;99.90;;;;;;5057523;28;20438;-78
2022/04/16 07:24:52;;;;;;;5.40;1.60;;;11.70;99.90;;;;;;5056828;28;20816;-78
2022/04/16 07:27:20;;;;;;;7.63;2.07;;;11.90;99.90;;;;;;5058173;28;20461;-78
2022/04/16 07:29:50;;;;;;;6.57;1.50;;;12.00;99.90;;;;;;5056223;28;20466;-77
2022/04/16 07:32:18;;;;;;;5.93;1.50;;;12.20;99.90;;;;;;5054160;28;20950;-78
2022/04/16 07:34:47;;;;;;;6.17;1.40;;;12.30;99.90;;;;;;5051808;28;20885;-78
2022/04/16 07:37:15;;;;;;;5.60;1.53;;;12.40;99.90;;;;;;5055904;28;20477;-78
2022/04/16 07:39:44;;;;;;;5.80;1.80;;;12.50;99.90;;;;;;5057706;28;20473;-78
2022/04/16 07:42:18;;;;;;;5.10;1.50;;;12.60;99.90;;;;;;5046861;28;20449;-80
2022/04/16 07:44:46;;;;;;;5.80;1.70;;;12.80;99.90;;;;;;5046897;28;20455;-78
2022/04/16 07:47:14;;;;;;;6.00;1.77;;;12.90;99.90;;;;;;5036274;28;20498;-78
2022/04/16 07:49:42;;;;;;;6.70;2.63;;;13.00;99.90;;;;;;5046698;28;20470;-78
2022/04/16 07:52:12;;;;;;;4.97;1.53;;;13.10;99.90;;;;;;5038197;28;20872;-78
2022/04/16 07:54:40;;;;;;;5.90;1.60;;;13.10;99.90;;;;;;5035494;28;20832;-78
2022/04/16 07:57:08;;;;;;;8.50;2.30;;;13.10;99.90;;;;;;5035383;28;21045;-77
2022/04/16 07:59:37;;;;;;;7.50;1.83;;;13.20;99.90;;;;;;5032322;28;20877;-77
2022/04/16 08:02:06;;;;;;;7.13;1.90;;;13.20;99.60;;;;;;5033449;28;21054;-77
2022/04/16 08:04:34;;;;;;;6.17;2.03;;;13.10;99.70;;;;;;5034013;28;20490;-77
2022/04/16 08:07:03;;;;;;;6.60;1.93;;;13.20;99.90;;;;;;5033173;28;20508;-77
2022/04/16 08:09:32;;;;;;;5.33;1.73;;;13.20;99.10;;;;;;5033259;28;20494;-77
2022/04/16 08:12:00;;;;;;;6.30;1.63;;;13.20;98.90;;;;;;5034171;28;20457;-77
2022/04/16 08:14:28;;;;;;;7.17;1.63;;;13.20;98.80;;;;;;5034567;28;20882;-77
2022/04/16 08:16:57;;;;;;;4.80;1.53;;;13.20;98.60;;;;;;5034137;28;20470;-77
2022/04/16 08:19:25;;;;;;;7.40;1.90;;;13.30;98.60;;;;;;5034722;28;20486;-77
2022/04/16 08:21:54;;;;;;;7.43;3.40;;;13.30;98.50;;;;;;5034489;28;20956;-78
2022/04/16 08:24:41;;;;;;;4.70;1.20;;;13.40;98.50;;;;;;5035743;28;20450;-77
2022/04/16 08:27:10;;;;;;;6.47;1.83;;;13.50;98.00;;;;;;5033886;28;20478;-77
2022/04/16 08:29:38;;;;;;;6.53;2.37;;;13.50;97.70;;;;;;5033411;28;20543;-77
2022/04/16 08:32:09;;;;;;;4.70;1.27;;;13.50;97.80;;;;;;5032658;28;20451;-77
2022/04/16 08:34:52;;;;;;;5.13;1.30;;;13.60;97.60;;;;;;5015411;28;20436;-77
2022/04/16 08:37:20;;;;;;;6.23;1.30;;;13.60;97.50;;;;;;5028004;28;20473;-77
2022/04/16 08:39:48;;;;;;;5.70;1.83;;;13.70;97.50;;;;;;5054002;28;20454;-77
2022/04/16 08:42:18;;;;;;;5.13;1.40;;;13.80;96.90;;;;;;5054462;28;20518;-78
2022/04/16 08:44:47;;;;;;;5.33;1.50;;;13.70;96.70;;;;;;5048771;28;20823;-77
2022/04/16 08:47:16;;;;;;;4.80;1.33;;;13.70;96.70;;;;;;5034803;28;20992;-78
2022/04/16 08:49:45;;;;;;;4.60;1.20;;;13.70;96.70;;;;;;5036719;28;20538;-78
2022/04/16 08:52:13;;;;;;;5.73;1.50;;;13.70;96.80;;;;;;5041099;28;20500;-77
2022/04/16 08:54:41;;;;;;;6.03;1.60;;;13.80;96.90;;;;;;5053123;28;20428;-77
2022/04/16 08:57:10;;;;;;;6.10;1.40;;;13.90;96.90;;;;;;5053151;28;20509;-77
2022/04/16 08:59:39;;;;;;;4.90;1.30;;;14.10;96.90;;;;;;5053213;28;20448;-77
2022/04/16 09:02:09;;;;;;;5.43;1.70;;;14.20;96.70;;;;;;5053036;28;20529;-77
2022/04/16 09:04:37;;;;;;;5.00;1.37;;;14.30;96.70;;;;;;5023687;28;20455;-78
2022/04/16 09:07:06;;;;;;;6.00;1.30;;;14.40;96.20;;;;;;5035279;28;20478;-78
2022/04/16 09:09:34;;;;;;;4.70;1.50;;;14.40;95.60;;;;;;5036958;28;20453;-77
2022/04/16 09:12:03;;;;;;;5.40;1.77;;;14.30;95.80;;;;;;5053236;28;20502;-77
2022/04/16 09:14:35;;;;;;;5.10;1.33;;;14.20;95.10;;;;;;5042228;28;20450;-77
2022/04/16 09:17:08;;;;;;;4.90;1.30;;;14.20;94.90;;;;;;5032830;28;20503;-77
2022/04/16 09:19:37;;;;;;;4.80;1.20;;;14.10;94.90;;;;;;5049086;28;20468;-77
2022/04/16 09:22:05;;;;;;;5.40;1.40;;;14.20;95.10;;;;;;5053736;28;20458;-77
2022/04/16 09:24:46;;;;;;;6.20;1.57;;;14.20;95.00;;;;;;5052809;28;20970;-77
2022/04/16 09:27:14;;;;;;;4.80;1.57;;;14.30;94.50;;;;;;5053673;28;20449;-78
2022/04/16 09:29:43;;;;;;;4.87;1.43;;;14.30;94.30;;;;;;5056370;28;20981;-78
2022/04/16 09:32:22;;;;;;;5.10;1.40;;;14.30;94.40;;;;;;5052666;28;20497;-77
2022/04/16 09:34:50;;;;;;;4.73;1.37;;;14.40;94.40;;;;;;5052505;28;20445;-78
2022/04/16 09:37:19;;;;;;;4.50;1.20;;;14.50;94.50;;;;;;5052506;28;20473;-77
2022/04/16 09:39:47;;;;;;;4.60;1.27;;;14.50;94.30;;;;;;5053094;28;20438;-77
2022/04/16 09:42:25;;;;;;;5.80;1.23;;;14.60;94.20;;;;;;5053997;28;20450;-77
2022/04/16 09:44:53;;;;;;;4.60;1.30;;;14.70;94.20;;;;;;5052980;28;20453;-77
2022/04/16 09:47:25;;;;;;;4.23;0.93;;;14.70;94.10;;;;;;5052955;28;20466;-77
2022/04/16 09:49:55;;;;;;;5.37;1.30;;;14.70;93.70;;;;;;5045608;28;20451;-77
2022/04/16 09:52:24;;;;;;;4.43;1.10;;;14.70;93.50;;;;;;5032240;28;20562;-77
2022/04/16 09:54:55;;;;;;;4.17;1.17;;;14.60;93.30;;;;;;5032340;28;20443;-77
2022/04/16 09:57:27;;;;;;;5.13;1.30;;;14.60;93.20;;;;;;5032845;28;20843;-77
2022/04/16 09:59:58;;;;;;;4.20;1.00;;;14.60;93.20;;;;;;5032077;28;20435;-76
2022/04/16 10:02:31;;;;;;;4.50;1.10;;;14.50;93.10;;;;;;5033489;28;20455;-76
2022/04/16 10:05:00;;;;;;;5.00;1.40;;;14.60;93.20;;;;;;5045692;28;21002;-77
2022/04/16 10:07:30;;;;;;;4.77;1.30;;;14.70;93.00;;;;;;5031885;28;20562;-76
2022/04/16 10:09:59;;;;;;;6.10;1.10;;;14.70;92.90;;;;;;5039818;28;20429;-77
2022/04/16 10:15:18;;;;;;;4.90;1.70;;;14.80;92.50;;;;;;5051794;28;20553;-76
2022/04/16 10:17:51;;;;;;;4.97;1.40;;;14.80;92.50;;;;;;5028532;28;20840;-76
2022/04/16 10:20:20;;;;;;;4.90;1.80;;;14.80;92.30;;;;;;5012122;28;20452;-76
2022/04/16 10:22:56;;;;;;;4.50;1.43;;;14.80;92.30;;;;;;5013536;28;20435;-76
2022/04/16 10:25:34;;;;;;;7.07;1.53;;;14.90;92.50;;;;;;5012063;28;20433;-76
2022/04/16 10:28:06;;;;;;;4.53;1.27;;;14.90;92.10;;;;;;5012080;28;20534;-76
2022/04/16 10:30:39;;;;;;;4.70;1.20;;;14.90;92.00;;;;;;5019988;28;20458;-76
2022/04/16 10:33:19;;;;;;;5.53;2.20;;;14.90;91.80;;;;;;5040632;28;20525;-76
2022/04/16 10:35:56;;;;;;;4.60;1.50;;;14.90;91.40;;;;;;5051699;28;20537;-77
2022/04/16 10:38:33;;;;;;;8.70;1.47;;;14.70;90.90;;;;;;5038501;28;20987;-76
2022/04/16 10:41:09;;;;;;;6.00;1.30;;;14.70;91.00;;;;;;5031722;28;20541;-77
2022/04/16 10:43:55;;;;;;;4.40;1.10;;;14.60;91.20;;;;;;5031702;28;20859;-76
2022/04/16 10:46:24;;;;;;;4.30;1.40;;;14.70;91.20;;;;;;5032465;28;20502;-78
2022/04/16 10:48:55;;;;;;;4.57;1.30;;;14.60;90.70;;;;;;5034274;28;20445;-78
2022/04/16 10:51:23;;;;;;;5.27;1.40;;;14.60;90.50;;;;;;5034334;28;20470;-76
2022/04/16 10:53:52;;;;;;;5.73;1.30;;;14.50;90.30;;;;;;5031872;28;20535;-77
2022/04/16 10:56:21;;;;;;;7.83;2.30;;;14.50;90.20;;;;;;5033989;28;20467;-77
2022/04/16 10:59:01;;;;;;;15.57;5.00;;;14.40;90.10;;;;;;5046252;28;20434;-76
2022/04/16 11:01:31;;;;;;;6.47;1.23;;;14.40;90.20;;;;;;5055026;28;20430;-76
2022/04/16 11:04:11;;;;;;;4.80;1.43;;;14.40;90.00;;;;;;5055327;28;20827;-75
2022/04/16 11:06:43;;;;;;;5.80;2.57;;;14.40;89.30;;;;;;5055147;28;21006;-76
2022/04/16 11:09:13;;;;;;;4.80;1.13;;;14.30;89.10;;;;;;5043325;28;20509;-76
2022/04/16 11:11:43;;;;;;;4.23;1.20;;;14.20;89.60;;;;;;5035141;28;20980;-77
2022/04/16 11:14:11;;;;;;;7.07;1.30;;;14.20;89.70;;;;;;5035928;28;20445;-78
2022/04/16 11:16:44;;;;;;;4.40;1.50;;;14.30;88.90;;;;;;5036049;28;20481;-77
2022/04/16 11:19:15;;;;;;;4.80;1.60;;;14.20;87.30;;;;;;5035607;28;20524;-78
2022/04/16 11:21:44;;;;;;;4.57;1.60;;;14.10;87.00;;;;;;5049405;28;20503;-77
2022/04/16 11:24:13;;;;;;;6.50;1.73;;;14.00;86.80;;;;;;5046769;28;20510;-77
2022/04/16 11:34:59;;;;;;;4.97;1.27;;;14.00;87.20;;;;;;5040410;28;20495;-76
2022/04/16 11:37:32;;;;;;;4.40;1.40;;;14.10;87.10;;;;;;5054239;28;20470;-76
2022/04/16 11:40:01;;;;;;;5.50;2.03;;;14.10;87.00;;;;;;5055801;28;20458;-76
2022/04/16 11:42:30;;;;;;;4.53;1.20;;;14.10;86.80;;;;;;5054182;28;20446;-76
2022/04/16 11:44:59;;;;;;;5.13;2.00;;;14.10;86.80;;;;;;5055330;28;20879;-76
2022/04/16 11:47:30;;;;;;;4.20;1.10;;;14.10;86.80;;;;;;5054075;28;20975;-76
2022/04/16 11:50:03;;;;;;;4.80;1.40;;;14.20;86.40;;;;;;5055047;28;20514;-77
2022/04/16 11:52:33;;;;;;;5.73;1.40;;;14.20;86.40;;;;;;5015585;28;20894;-77
2022/04/16 11:55:06;;;;;;;5.50;1.53;;;14.20;85.80;;;;;;5043431;28;20458;-77
2022/04/16 11:57:36;;;;;;;5.30;2.00;;;14.20;85.90;;;;;;5053991;28;20470;-76
2022/04/16 12:00:07;;;;;;;4.30;1.30;;;14.20;85.70;;;;;;5054065;28;20445;-77
2022/04/16 12:02:37;;;;;;;5.63;2.10;;;14.20;85.60;;;;;;5056245;28;20431;-77
2022/04/16 12:05:12;;;;;;;5.10;1.73;;;14.20;85.50;;;;;;5054395;28;20445;-77
2022/04/16 12:07:42;;;;;;;4.40;1.20;;;14.20;85.30;;;;;;5055739;28;20485;-76
2022/04/16 12:10:14;;;;;;;4.67;1.13;;;14.20;84.50;;;;;;5053080;28;20453;-77
2022/04/16 12:12:46;;;;;;;5.27;1.40;;;14.20;84.50;;;;;;5053919;28;20532;-77
2022/04/16 12:15:20;;;;;;;4.50;1.40;;;14.20;84.70;;;;;;5044519;28;20464;-76
2022/04/16 12:17:48;;;;;;;4.43;1.23;;;14.20;84.80;;;;;;5033646;28;20917;-76
2022/04/16 12:20:20;;;;;;;5.30;1.97;;;14.20;84.70;;;;;;5033732;28;20454;-76
2022/04/16 12:22:50;;;;;;;5.23;1.90;;;14.20;84.40;;;;;;5035445;28;20423;-75
2022/04/16 12:25:20;;;;;;;4.70;1.20;;;14.20;83.90;;;;;;5033494;28;20443;-76
2022/04/16 12:27:50;;;;;;;4.40;1.30;;;14.20;83.60;;;;;;5030146;28;20472;-76
2022/04/16 12:30:19;;;;;;;4.73;1.07;;;14.20;83.70;;;;;;5030112;28;20444;-76
2022/04/16 12:32:58;;;;;;;4.17;1.00;;;14.20;83.80;;;;;;5017558;28;20516;-76
2022/04/16 12:35:29;;;;;;;5.17;1.00;;;14.20;83.70;;;;;;5051220;28;20854;-76
2022/04/16 12:37:59;;;;;;;5.23;1.40;;;14.20;83.90;;;;;;5040023;28;20479;-76
2022/04/16 12:40:28;;;;;;;4.20;1.10;;;14.30;84.10;;;;;;5034497;28;20811;-76
2022/04/16 12:42:57;;;;;;;4.53;1.10;;;14.30;83.90;;;;;;5033016;28;20577;-76
2022/04/16 12:45:28;;;;;;;4.43;1.23;;;14.30;83.40;;;;;;5050604;28;20536;-76
2022/04/16 12:47:56;;;;;;;4.60;1.00;;;14.30;83.20;;;;;;5052947;28;20485;-76
2022/04/16 12:50:26;;;;;;;4.43;0.80;;;14.30;83.20;;;;;;5048309;28;20481;-76
2022/04/16 12:52:55;;;;;;;4.40;1.30;;;14.30;83.70;;;;;;5037696;28;20878;-77
2022/04/16 12:55:25;;;;;;;4.47;0.80;;;14.30;82.50;;;;;;5048151;28;20457;-76
2022/04/16 12:57:53;;;;;;;4.30;1.27;;;14.30;81.90;;;;;;5032835;28;20502;-76
2022/04/16 13:00:21;;;;;;;4.77;1.10;;;14.30;81.10;;;;;;5032949;28;20447;-76
2022/04/16 13:02:50;;;;;;;4.17;0.90;;;14.30;80.60;;;;;;5032971;28;20537;-76
2022/04/16 13:05:19;;;;;;;4.47;1.00;;;14.20;80.20;;;;;;5047833;28;20576;-76
2022/04/16 13:07:48;;;;;;;4.73;1.03;;;14.20;80.00;;;;;;5054094;28;20485;-75
2022/04/16 13:10:19;;;;;;;4.47;1.00;;;14.20;80.10;;;;;;5050623;28;20541;-76
2022/04/16 13:12:48;;;;;;;4.50;0.90;;;14.20;79.90;;;;;;5042306;28;20471;-76
2022/04/16 13:15:16;;;;;;;4.30;1.03;;;14.30;80.00;;;;;;5033837;28;20437;-77
2022/04/16 13:17:44;;;;;;;5.07;1.57;;;14.30;80.00;;;;;;5033250;28;20979;-76
2022/04/16 13:20:12;;;;;;;5.33;1.10;;;14.40;80.00;;;;;;5032515;28;20768;-77